sensor_id;sensor_type;location;lat;lon;timestamp;P1;durP1;ratioP1;P2;durP2;ratioP2
75429;SDS011;64127;51.488;5.462;2023-04-03T00:01:13;4.40;;;4.00;;
75429;SDS011;64127;51.488;5.462;2023-04-03T00:03:45;4.70;;;4.20;;
75429;SDS011;64127;51.488;5.462;2023-04-03T00:06:18;4.77;;;4.37;;
75429;SDS011;64127;51.488;5.462;2023-04-03T00:08:50;4.90;;;4.40;;
75429;SDS011;64127;51.488;5.462;2023-04-03T00:11:23;4.90;;;4.50;;
75429;SDS011;64127;51.488;5.462;2023-04-03T00:13:55;4.50;;;4.00;;
75429;SDS011;64127;51.488;5.462;2023-04-03T00:16:27;4.83;;;4.33;;
75429;SDS011;64127;51.488;5.462;2023-04-03T00:18:59;4.90;;;4.40;;
75429;SDS011;64127;51.488;5.462;2023-04-03T00:21:31;7.63;;;5.17;;
75429;SDS011;64127;51.488;5.462;2023-04-03T00:24:03;5.30;;;4.27;;
75429;SDS011;64127;51.488;5.462;2023-04-03T00:26:36;5.20;;;4.23;;
75429;SDS011;64127;51.488;5.462;2023-04-03T00:29:08;5.67;;;5.07;;
75429;SDS011;64127;51.488;5.462;2023-04-03T00:31:40;5.03;;;4.53;;
75429;SDS011;64127;51.488;5.462;2023-04-03T00:34:12;4.87;;;4.47;;
75429;SDS011;64127;51.488;5.462;2023-04-03T00:36:44;5.30;;;4.80;;
75429;SDS011;64127;51.488;5.462;2023-04-03T00:39:16;4.93;;;4.43;;
75429;SDS011;64127;51.488;5.462;2023-04-03T00:41:48;6.53;;;4.50;;
75429;SDS011;64127;51.488;5.462;2023-04-03T00:47:05;4.93;;;4.40;;
75429;SDS011;64127;51.488;5.462;2023-04-03T00:49:41;4.77;;;4.37;;
75429;SDS011;64127;51.488;5.462;2023-04-03T00:52:16;5.43;;;4.93;;
75429;SDS011;64127;51.488;5.462;2023-04-03T00:54:53;5.57;;;4.40;;
75429;SDS011;64127;51.488;5.462;2023-04-03T00:57:29;5.13;;;4.63;;
75429;SDS011;64127;51.488;5.462;2023-04-03T01:00:08;4.97;;;4.47;;
75429;SDS011;64127;51.488;5.462;2023-04-03T01:02:44;4.77;;;4.37;;
75429;SDS011;64127;51.488;5.462;2023-04-03T01:05:16;4.97;;;4.47;;
75429;SDS011;64127;51.488;5.462;2023-04-03T01:07:51;4.97;;;4.57;;
75429;SDS011;64127;51.488;5.462;2023-04-03T01:10:24;4.80;;;4.37;;
75429;SDS011;64127;51.488;5.462;2023-04-03T01:12:57;5.40;;;5.00;;
75429;SDS011;64127;51.488;5.462;2023-04-03T01:15:31;6.90;;;5.53;;
75429;SDS011;64127;51.488;5.462;2023-04-03T01:18:09;5.90;;;5.30;;
75429;SDS011;64127;51.488;5.462;2023-04-03T01:23:59;6.30;;;5.70;;
75429;SDS011;64127;51.488;5.462;2023-04-03T01:26:46;5.73;;;5.23;;
75429;SDS011;64127;51.488;5.462;2023-04-03T01:29:19;5.83;;;5.27;;
75429;SDS011;64127;51.488;5.462;2023-04-03T01:31:53;5.87;;;5.23;;
75429;SDS011;64127;51.488;5.462;2023-04-03T01:34:30;5.83;;;5.27;;
75429;SDS011;64127;51.488;5.462;2023-04-03T01:37:02;6.07;;;5.57;;
75429;SDS011;64127;51.488;5.462;2023-04-03T01:39:34;6.07;;;5.47;;
75429;SDS011;64127;51.488;5.462;2023-04-03T01:42:06;5.63;;;5.13;;
75429;SDS011;64127;51.488;5.462;2023-04-03T01:44:38;5.70;;;5.10;;
75429;SDS011;64127;51.488;5.462;2023-04-03T01:47:10;6.10;;;5.50;;
75429;SDS011;64127;51.488;5.462;2023-04-03T01:49:42;8.27;;;5.60;;
75429;SDS011;64127;51.488;5.462;2023-04-03T01:52:14;7.63;;;5.47;;
75429;SDS011;64127;51.488;5.462;2023-04-03T01:54:46;7.07;;;5.33;;
75429;SDS011;64127;51.488;5.462;2023-04-03T01:57:18;7.20;;;5.57;;
75429;SDS011;64127;51.488;5.462;2023-04-03T01:59:50;6.23;;;5.30;;
75429;SDS011;64127;51.488;5.462;2023-04-03T02:02:22;5.80;;;5.20;;
75429;SDS011;64127;51.488;5.462;2023-04-03T02:04:54;5.73;;;5.03;;
75429;SDS011;64127;51.488;5.462;2023-04-03T02:07:26;6.07;;;5.50;;
75429;SDS011;64127;51.488;5.462;2023-04-03T02:09:58;5.53;;;5.03;;
75429;SDS011;64127;51.488;5.462;2023-04-03T02:12:30;6.37;;;5.20;;
75429;SDS011;64127;51.488;5.462;2023-04-03T02:15:02;6.53;;;5.33;;
75429;SDS011;64127;51.488;5.462;2023-04-03T02:17:35;5.60;;;5.10;;
75429;SDS011;64127;51.488;5.462;2023-04-03T02:20:08;6.07;;;5.47;;
75429;SDS011;64127;51.488;5.462;2023-04-03T02:22:40;6.00;;;5.17;;
75429;SDS011;64127;51.488;5.462;2023-04-03T02:25:13;5.80;;;5.07;;
75429;SDS011;64127;51.488;5.462;2023-04-03T02:27:45;6.50;;;5.20;;
75429;SDS011;64127;51.488;5.462;2023-04-03T02:30:17;5.80;;;5.20;;
75429;SDS011;64127;51.488;5.462;2023-04-03T02:32:49;6.07;;;5.07;;
75429;SDS011;64127;51.488;5.462;2023-04-03T02:35:21;5.93;;;5.33;;
75429;SDS011;64127;51.488;5.462;2023-04-03T02:37:53;7.00;;;5.57;;
75429;SDS011;64127;51.488;5.462;2023-04-03T02:40:26;6.33;;;5.20;;
75429;SDS011;64127;51.488;5.462;2023-04-03T02:42:58;5.87;;;5.27;;
75429;SDS011;64127;51.488;5.462;2023-04-03T02:45:30;6.20;;;5.03;;
75429;SDS011;64127;51.488;5.462;2023-04-03T02:48:02;5.80;;;5.20;;
75429;SDS011;64127;51.488;5.462;2023-04-03T02:50:36;5.53;;;4.53;;
75429;SDS011;64127;51.488;5.462;2023-04-03T02:53:09;5.70;;;5.10;;
75429;SDS011;64127;51.488;5.462;2023-04-03T02:55:41;5.57;;;5.03;;
75429;SDS011;64127;51.488;5.462;2023-04-03T02:58:13;6.43;;;5.23;;
75429;SDS011;64127;51.488;5.462;2023-04-03T03:00:45;5.40;;;4.90;;
75429;SDS011;64127;51.488;5.462;2023-04-03T03:03:17;5.90;;;4.93;;
75429;SDS011;64127;51.488;5.462;2023-04-03T03:05:49;5.33;;;4.77;;
75429;SDS011;64127;51.488;5.462;2023-04-03T03:08:21;5.20;;;4.70;;
75429;SDS011;64127;51.488;5.462;2023-04-03T03:10:53;5.17;;;4.67;;
75429;SDS011;64127;51.488;5.462;2023-04-03T03:13:25;5.20;;;4.70;;
75429;SDS011;64127;51.488;5.462;2023-04-03T03:15:58;5.27;;;4.43;;
75429;SDS011;64127;51.488;5.462;2023-04-03T03:18:30;5.63;;;4.30;;
75429;SDS011;64127;51.488;5.462;2023-04-03T03:21:03;5.57;;;4.83;;
75429;SDS011;64127;51.488;5.462;2023-04-03T03:23:35;5.43;;;4.50;;
75429;SDS011;64127;51.488;5.462;2023-04-03T03:26:08;5.93;;;4.50;;
75429;SDS011;64127;51.488;5.462;2023-04-03T03:28:42;5.43;;;4.57;;
75429;SDS011;64127;51.488;5.462;2023-04-03T03:31:14;5.13;;;4.63;;
75429;SDS011;64127;51.488;5.462;2023-04-03T03:33:46;4.53;;;4.23;;
75429;SDS011;64127;51.488;5.462;2023-04-03T03:36:18;4.77;;;4.20;;
75429;SDS011;64127;51.488;5.462;2023-04-03T03:38:50;4.83;;;4.33;;
75429;SDS011;64127;51.488;5.462;2023-04-03T03:41:22;5.50;;;4.30;;
75429;SDS011;64127;51.488;5.462;2023-04-03T03:43:54;4.60;;;4.20;;
75429;SDS011;64127;51.488;5.462;2023-04-03T03:46:26;4.23;;;3.77;;
75429;SDS011;64127;51.488;5.462;2023-04-03T03:48:59;4.60;;;3.70;;
75429;SDS011;64127;51.488;5.462;2023-04-03T03:51:31;4.70;;;3.70;;
75429;SDS011;64127;51.488;5.462;2023-04-03T03:54:03;4.60;;;3.37;;
75429;SDS011;64127;51.488;5.462;2023-04-03T03:56:36;7.33;;;3.77;;
75429;SDS011;64127;51.488;5.462;2023-04-03T03:59:08;5.23;;;3.90;;
75429;SDS011;64127;51.488;5.462;2023-04-03T04:01:43;4.00;;;3.60;;
75429;SDS011;64127;51.488;5.462;2023-04-03T04:04:15;4.37;;;3.97;;
75429;SDS011;64127;51.488;5.462;2023-04-03T04:06:47;4.33;;;3.70;;
75429;SDS011;64127;51.488;5.462;2023-04-03T04:09:19;4.30;;;3.77;;
75429;SDS011;64127;51.488;5.462;2023-04-03T04:11:52;4.43;;;3.50;;
75429;SDS011;64127;51.488;5.462;2023-04-03T04:14:25;4.17;;;3.83;;
75429;SDS011;64127;51.488;5.462;2023-04-03T04:16:57;5.60;;;3.80;;
75429;SDS011;64127;51.488;5.462;2023-04-03T04:19:29;3.63;;;3.33;;
75429;SDS011;64127;51.488;5.462;2023-04-03T04:22:01;6.10;;;3.40;;
75429;SDS011;64127;51.488;5.462;2023-04-03T04:24:33;5.10;;;3.70;;
75429;SDS011;64127;51.488;5.462;2023-04-03T04:27:08;5.73;;;3.67;;
75429;SDS011;64127;51.488;5.462;2023-04-03T04:29:39;5.73;;;3.80;;
75429;SDS011;64127;51.488;5.462;2023-04-03T04:32:11;4.07;;;3.37;;
75429;SDS011;64127;51.488;5.462;2023-04-03T04:34:43;4.47;;;3.57;;
75429;SDS011;64127;51.488;5.462;2023-04-03T04:37:15;4.00;;;3.60;;
75429;SDS011;64127;51.488;5.462;2023-04-03T04:39:47;5.60;;;3.50;;
75429;SDS011;64127;51.488;5.462;2023-04-03T04:42:19;4.70;;;3.40;;
75429;SDS011;64127;51.488;5.462;2023-04-03T04:44:51;3.77;;;3.10;;
75429;SDS011;64127;51.488;5.462;2023-04-03T04:47:23;3.70;;;3.03;;
75429;SDS011;64127;51.488;5.462;2023-04-03T04:49:55;3.83;;;3.20;;
75429;SDS011;64127;51.488;5.462;2023-04-03T04:52:27;3.83;;;2.90;;
75429;SDS011;64127;51.488;5.462;2023-04-03T04:54:59;7.00;;;2.97;;
75429;SDS011;64127;51.488;5.462;2023-04-03T04:57:31;5.33;;;3.30;;
75429;SDS011;64127;51.488;5.462;2023-04-03T05:00:04;5.63;;;3.00;;
75429;SDS011;64127;51.488;5.462;2023-04-03T05:02:36;5.37;;;3.00;;
75429;SDS011;64127;51.488;5.462;2023-04-03T05:05:09;4.13;;;3.00;;
75429;SDS011;64127;51.488;5.462;2023-04-03T05:07:41;3.93;;;2.90;;
75429;SDS011;64127;51.488;5.462;2023-04-03T05:10:13;3.50;;;2.90;;
75429;SDS011;64127;51.488;5.462;2023-04-03T05:12:45;7.00;;;2.93;;
75429;SDS011;64127;51.488;5.462;2023-04-03T05:15:17;4.60;;;2.60;;
75429;SDS011;64127;51.488;5.462;2023-04-03T05:17:49;4.47;;;2.60;;
75429;SDS011;64127;51.488;5.462;2023-04-03T05:20:22;3.00;;;2.50;;
75429;SDS011;64127;51.488;5.462;2023-04-03T05:22:54;3.43;;;2.70;;
75429;SDS011;64127;51.488;5.462;2023-04-03T05:25:26;3.90;;;2.90;;
75429;SDS011;64127;51.488;5.462;2023-04-03T05:27:58;3.93;;;2.70;;
75429;SDS011;64127;51.488;5.462;2023-04-03T05:30:30;4.97;;;2.97;;
75429;SDS011;64127;51.488;5.462;2023-04-03T05:33:02;3.43;;;2.53;;
75429;SDS011;64127;51.488;5.462;2023-04-03T05:35:35;3.60;;;2.60;;
75429;SDS011;64127;51.488;5.462;2023-04-03T05:38:11;5.40;;;2.97;;
75429;SDS011;64127;51.488;5.462;2023-04-03T05:40:44;4.17;;;2.93;;
75429;SDS011;64127;51.488;5.462;2023-04-03T05:43:16;2.53;;;2.27;;
75429;SDS011;64127;51.488;5.462;2023-04-03T05:45:48;3.87;;;2.63;;
75429;SDS011;64127;51.488;5.462;2023-04-03T05:48:20;3.17;;;2.87;;
75429;SDS011;64127;51.488;5.462;2023-04-03T05:50:52;4.57;;;2.60;;
75429;SDS011;64127;51.488;5.462;2023-04-03T05:53:28;3.87;;;2.67;;
75429;SDS011;64127;51.488;5.462;2023-04-03T05:56:04;4.13;;;2.43;;
75429;SDS011;64127;51.488;5.462;2023-04-03T05:58:36;4.27;;;2.40;;
75429;SDS011;64127;51.488;5.462;2023-04-03T06:01:08;2.67;;;2.27;;
75429;SDS011;64127;51.488;5.462;2023-04-03T06:03:40;3.67;;;2.50;;
75429;SDS011;64127;51.488;5.462;2023-04-03T06:06:13;3.00;;;2.40;;
75429;SDS011;64127;51.488;5.462;2023-04-03T06:08:46;3.33;;;2.43;;
75429;SDS011;64127;51.488;5.462;2023-04-03T06:11:18;3.63;;;2.27;;
75429;SDS011;64127;51.488;5.462;2023-04-03T06:13:50;3.33;;;2.47;;
75429;SDS011;64127;51.488;5.462;2023-04-03T06:16:22;3.53;;;2.73;;
75429;SDS011;64127;51.488;5.462;2023-04-03T06:18:54;2.73;;;2.30;;
75429;SDS011;64127;51.488;5.462;2023-04-03T06:21:27;4.87;;;2.30;;
75429;SDS011;64127;51.488;5.462;2023-04-03T06:23:59;4.40;;;2.63;;
75429;SDS011;64127;51.488;5.462;2023-04-03T06:26:31;3.80;;;2.50;;
75429;SDS011;64127;51.488;5.462;2023-04-03T06:29:04;5.87;;;2.63;;
75429;SDS011;64127;51.488;5.462;2023-04-03T06:31:36;2.93;;;2.40;;
75429;SDS011;64127;51.488;5.462;2023-04-03T06:34:09;3.07;;;2.03;;
75429;SDS011;64127;51.488;5.462;2023-04-03T06:36:42;4.07;;;2.50;;
75429;SDS011;64127;51.488;5.462;2023-04-03T06:39:16;3.70;;;2.30;;
75429;SDS011;64127;51.488;5.462;2023-04-03T06:41:51;3.00;;;2.40;;
75429;SDS011;64127;51.488;5.462;2023-04-03T06:44:24;2.70;;;2.13;;
75429;SDS011;64127;51.488;5.462;2023-04-03T06:46:55;2.93;;;2.20;;
75429;SDS011;64127;51.488;5.462;2023-04-03T06:49:28;4.20;;;2.70;;
75429;SDS011;64127;51.488;5.462;2023-04-03T06:52:00;4.07;;;2.33;;
75429;SDS011;64127;51.488;5.462;2023-04-03T06:54:33;3.80;;;2.43;;
75429;SDS011;64127;51.488;5.462;2023-04-03T06:57:06;4.10;;;2.37;;
75429;SDS011;64127;51.488;5.462;2023-04-03T06:59:39;3.20;;;2.30;;
75429;SDS011;64127;51.488;5.462;2023-04-03T07:02:11;3.47;;;2.47;;
75429;SDS011;64127;51.488;5.462;2023-04-03T07:04:44;4.83;;;2.43;;
75429;SDS011;64127;51.488;5.462;2023-04-03T07:07:16;4.30;;;2.60;;
75429;SDS011;64127;51.488;5.462;2023-04-03T07:09:48;3.70;;;2.30;;
75429;SDS011;64127;51.488;5.462;2023-04-03T07:12:20;4.10;;;2.73;;
75429;SDS011;64127;51.488;5.462;2023-04-03T07:14:52;3.80;;;2.23;;
75429;SDS011;64127;51.488;5.462;2023-04-03T07:17:24;2.90;;;2.20;;
75429;SDS011;64127;51.488;5.462;2023-04-03T07:19:56;2.60;;;2.10;;
75429;SDS011;64127;51.488;5.462;2023-04-03T07:22:28;3.73;;;2.30;;
75429;SDS011;64127;51.488;5.462;2023-04-03T07:25:02;5.03;;;2.27;;
75429;SDS011;64127;51.488;5.462;2023-04-03T07:27:35;4.30;;;2.33;;
75429;SDS011;64127;51.488;5.462;2023-04-03T07:30:07;6.23;;;2.20;;
75429;SDS011;64127;51.488;5.462;2023-04-03T07:32:40;3.60;;;2.10;;
75429;SDS011;64127;51.488;5.462;2023-04-03T07:35:12;3.10;;;2.00;;
75429;SDS011;64127;51.488;5.462;2023-04-03T07:37:44;4.57;;;2.50;;
75429;SDS011;64127;51.488;5.462;2023-04-03T07:40:17;3.77;;;2.30;;
75429;SDS011;64127;51.488;5.462;2023-04-03T07:42:51;3.40;;;2.10;;
75429;SDS011;64127;51.488;5.462;2023-04-03T07:45:24;3.93;;;2.30;;
75429;SDS011;64127;51.488;5.462;2023-04-03T07:47:56;3.47;;;2.03;;
75429;SDS011;64127;51.488;5.462;2023-04-03T07:50:28;5.23;;;2.40;;
75429;SDS011;64127;51.488;5.462;2023-04-03T07:53:02;5.07;;;2.00;;
75429;SDS011;64127;51.488;5.462;2023-04-03T07:55:34;4.50;;;2.10;;
75429;SDS011;64127;51.488;5.462;2023-04-03T07:58:15;2.53;;;2.00;;
75429;SDS011;64127;51.488;5.462;2023-04-03T08:00:49;4.03;;;2.40;;
75429;SDS011;64127;51.488;5.462;2023-04-03T08:03:21;3.17;;;2.20;;
75429;SDS011;64127;51.488;5.462;2023-04-03T08:05:54;4.20;;;2.47;;
75429;SDS011;64127;51.488;5.462;2023-04-03T08:08:26;4.37;;;2.20;;
75429;SDS011;64127;51.488;5.462;2023-04-03T08:11:01;3.70;;;2.10;;
75429;SDS011;64127;51.488;5.462;2023-04-03T08:13:33;3.77;;;2.20;;
75429;SDS011;64127;51.488;5.462;2023-04-03T08:16:08;2.93;;;1.87;;
75429;SDS011;64127;51.488;5.462;2023-04-03T08:18:43;5.63;;;2.20;;
75429;SDS011;64127;51.488;5.462;2023-04-03T08:21:15;3.13;;;1.93;;
75429;SDS011;64127;51.488;5.462;2023-04-03T08:23:48;3.13;;;1.90;;
75429;SDS011;64127;51.488;5.462;2023-04-03T08:26:21;3.13;;;1.80;;
75429;SDS011;64127;51.488;5.462;2023-04-03T08:28:54;2.97;;;1.83;;
75429;SDS011;64127;51.488;5.462;2023-04-03T08:31:26;3.33;;;1.93;;
75429;SDS011;64127;51.488;5.462;2023-04-03T08:33:59;5.23;;;1.97;;
75429;SDS011;64127;51.488;5.462;2023-04-03T08:36:31;4.07;;;2.07;;
75429;SDS011;64127;51.488;5.462;2023-04-03T08:39:03;2.77;;;1.97;;
75429;SDS011;64127;51.488;5.462;2023-04-03T08:41:36;2.77;;;2.00;;
75429;SDS011;64127;51.488;5.462;2023-04-03T08:44:14;4.27;;;1.70;;
75429;SDS011;64127;51.488;5.462;2023-04-03T08:47:04;2.17;;;1.90;;
75429;SDS011;64127;51.488;5.462;2023-04-03T08:49:51;3.13;;;2.00;;
75429;SDS011;64127;51.488;5.462;2023-04-03T08:52:32;2.70;;;1.70;;
75429;SDS011;64127;51.488;5.462;2023-04-03T08:58:01;3.53;;;1.53;;
75429;SDS011;64127;51.488;5.462;2023-04-03T09:00:49;2.03;;;1.50;;
75429;SDS011;64127;51.488;5.462;2023-04-03T09:03:32;4.43;;;1.83;;
75429;SDS011;64127;51.488;5.462;2023-04-03T09:06:29;3.40;;;1.53;;
75429;SDS011;64127;51.488;5.462;2023-04-03T09:12:12;1.87;;;1.50;;
75429;SDS011;64127;51.488;5.462;2023-04-03T09:15:03;2.10;;;1.40;;
75429;SDS011;64127;51.488;5.462;2023-04-03T09:18:06;2.17;;;1.60;;
75429;SDS011;64127;51.488;5.462;2023-04-03T09:24:17;2.42;;;1.50;;
75429;SDS011;64127;51.488;5.462;2023-04-03T09:26:56;2.00;;;1.58;;
75429;SDS011;64127;51.488;5.462;2023-04-03T09:29:37;2.70;;;1.60;;
75429;SDS011;64127;51.488;5.462;2023-04-03T09:32:25;3.63;;;1.50;;
75429;SDS011;64127;51.488;5.462;2023-04-03T09:35:04;1.50;;;1.20;;
75429;SDS011;64127;51.488;5.462;2023-04-03T09:38:16;1.53;;;1.27;;
75429;SDS011;64127;51.488;5.462;2023-04-03T09:41:04;1.53;;;1.27;;
75429;SDS011;64127;51.488;5.462;2023-04-03T09:43:52;1.40;;;1.20;;
75429;SDS011;64127;51.488;5.462;2023-04-03T09:49:03;2.47;;;1.50;;
75429;SDS011;64127;51.488;5.462;2023-04-03T09:51:40;2.97;;;1.20;;
75429;SDS011;64127;51.488;5.462;2023-04-03T09:57:12;2.13;;;1.30;;
75429;SDS011;64127;51.488;5.462;2023-04-03T09:59:57;2.20;;;1.37;;
75429;SDS011;64127;51.488;5.462;2023-04-03T10:02:38;1.50;;;1.40;;
75429;SDS011;64127;51.488;5.462;2023-04-03T10:05:35;2.07;;;1.50;;
75429;SDS011;64127;51.488;5.462;2023-04-03T10:10:46;1.60;;;1.30;;
75429;SDS011;64127;51.488;5.462;2023-04-03T10:13:36;1.70;;;1.30;;
75429;SDS011;64127;51.488;5.462;2023-04-03T10:19:46;2.90;;;1.43;;
75429;SDS011;64127;51.488;5.462;2023-04-03T10:28:03;1.40;;;1.23;;
75429;SDS011;64127;51.488;5.462;2023-04-03T10:30:48;1.30;;;1.20;;
75429;SDS011;64127;51.488;5.462;2023-04-03T10:39:50;1.50;;;1.30;;
75429;SDS011;64127;51.488;5.462;2023-04-03T10:42:39;1.30;;;1.07;;
75429;SDS011;64127;51.488;5.462;2023-04-03T10:51:51;1.30;;;1.00;;
75429;SDS011;64127;51.488;5.462;2023-04-03T10:58:19;1.17;;;1.00;;
75429;SDS011;64127;51.488;5.462;2023-04-03T11:01:08;1.43;;;1.03;;
75429;SDS011;64127;51.488;5.462;2023-04-03T11:03:51;1.13;;;0.90;;
75429;SDS011;64127;51.488;5.462;2023-04-03T11:06:31;0.97;;;0.93;;
75429;SDS011;64127;51.488;5.462;2023-04-03T11:09:26;1.20;;;1.00;;
75429;SDS011;64127;51.488;5.462;2023-04-03T11:12:25;9.07;;;1.10;;
75429;SDS011;64127;51.488;5.462;2023-04-03T11:15:18;1.67;;;0.90;;
75429;SDS011;64127;51.488;5.462;2023-04-03T11:18:02;3.33;;;1.23;;
75429;SDS011;64127;51.488;5.462;2023-04-03T11:24:14;1.40;;;0.70;;
75429;SDS011;64127;51.488;5.462;2023-04-03T11:26:54;1.67;;;0.90;;
75429;SDS011;64127;51.488;5.462;2023-04-03T11:29:29;2.47;;;1.00;;
75429;SDS011;64127;51.488;5.462;2023-04-03T11:35:18;1.00;;;0.90;;
75429;SDS011;64127;51.488;5.462;2023-04-03T11:37:52;1.00;;;0.83;;
75429;SDS011;64127;51.488;5.462;2023-04-03T11:40:26;1.30;;;0.90;;
75429;SDS011;64127;51.488;5.462;2023-04-03T11:43:16;1.27;;;1.00;;
75429;SDS011;64127;51.488;5.462;2023-04-03T11:53:47;2.67;;;1.10;;
75429;SDS011;64127;51.488;5.462;2023-04-03T12:01:56;1.10;;;1.00;;
75429;SDS011;64127;51.488;5.462;2023-04-03T12:04:29;1.93;;;1.30;;
75429;SDS011;64127;51.488;5.462;2023-04-03T12:07:16;1.70;;;1.00;;
75429;SDS011;64127;51.488;5.462;2023-04-03T12:09:54;3.07;;;1.30;;
75429;SDS011;64127;51.488;5.462;2023-04-03T12:12:31;1.97;;;1.30;;
75429;SDS011;64127;51.488;5.462;2023-04-03T12:15:21;2.30;;;1.00;;
75429;SDS011;64127;51.488;5.462;2023-04-03T12:21:25;1.30;;;1.00;;
75429;SDS011;64127;51.488;5.462;2023-04-03T12:33:03;2.20;;;1.03;;
75429;SDS011;64127;51.488;5.462;2023-04-03T12:36:23;1.40;;;1.10;;
75429;SDS011;64127;51.488;5.462;2023-04-03T12:39:33;3.43;;;1.30;;
75429;SDS011;64127;51.488;5.462;2023-04-03T12:47:55;2.37;;;1.17;;
75429;SDS011;64127;51.488;5.462;2023-04-03T12:50:28;1.40;;;1.10;;
75429;SDS011;64127;51.488;5.462;2023-04-03T12:53:19;1.20;;;1.10;;
75429;SDS011;64127;51.488;5.462;2023-04-03T12:55:57;2.27;;;1.43;;
75429;SDS011;64127;51.488;5.462;2023-04-03T12:59:22;2.37;;;1.10;;
75429;SDS011;64127;51.488;5.462;2023-04-03T13:01:58;1.80;;;1.20;;
75429;SDS011;64127;51.488;5.462;2023-04-03T13:04:32;1.60;;;1.30;;
75429;SDS011;64127;51.488;5.462;2023-04-03T13:07:04;1.80;;;1.20;;
75429;SDS011;64127;51.488;5.462;2023-04-03T13:09:36;2.53;;;1.27;;
75429;SDS011;64127;51.488;5.462;2023-04-03T13:12:12;1.30;;;1.20;;
75429;SDS011;64127;51.488;5.462;2023-04-03T13:14:54;1.43;;;1.30;;
75429;SDS011;64127;51.488;5.462;2023-04-03T13:17:31;2.73;;;1.30;;
75429;SDS011;64127;51.488;5.462;2023-04-03T13:23:04;1.60;;;1.50;;
75429;SDS011;64127;51.488;5.462;2023-04-03T13:25:41;1.33;;;1.13;;
75429;SDS011;64127;51.488;5.462;2023-04-03T13:28:20;1.87;;;1.30;;
75429;SDS011;64127;51.488;5.462;2023-04-03T13:31:07;2.10;;;1.37;;
75429;SDS011;64127;51.488;5.462;2023-04-03T13:33:55;3.80;;;1.43;;
75429;SDS011;64127;51.488;5.462;2023-04-03T13:42:03;2.67;;;1.37;;
75429;SDS011;64127;51.488;5.462;2023-04-03T13:48:10;2.37;;;1.53;;
75429;SDS011;64127;51.488;5.462;2023-04-03T13:50:59;4.40;;;1.93;;
75429;SDS011;64127;51.488;5.462;2023-04-03T13:53:42;3.10;;;1.60;;
75429;SDS011;64127;51.488;5.462;2023-04-03T13:56:25;2.80;;;1.20;;
75429;SDS011;64127;51.488;5.462;2023-04-03T14:01:48;2.93;;;1.73;;
75429;SDS011;64127;51.488;5.462;2023-04-03T14:04:27;1.70;;;1.40;;
75429;SDS011;64127;51.488;5.462;2023-04-03T14:07:17;3.27;;;1.63;;
75429;SDS011;64127;51.488;5.462;2023-04-03T14:09:51;2.03;;;1.60;;
75429;SDS011;64127;51.488;5.462;2023-04-03T14:12:26;2.63;;;1.57;;
75429;SDS011;64127;51.488;5.462;2023-04-03T14:15:18;1.63;;;1.40;;
75429;SDS011;64127;51.488;5.462;2023-04-03T14:17:55;1.50;;;1.40;;
75429;SDS011;64127;51.488;5.462;2023-04-03T14:20:31;2.83;;;1.77;;
75429;SDS011;64127;51.488;5.462;2023-04-03T14:23:03;1.80;;;1.57;;
75429;SDS011;64127;51.488;5.462;2023-04-03T14:25:35;2.60;;;1.60;;
75429;SDS011;64127;51.488;5.462;2023-04-03T14:28:16;2.47;;;1.60;;
75429;SDS011;64127;51.488;5.462;2023-04-03T14:30:52;3.20;;;1.53;;
75429;SDS011;64127;51.488;5.462;2023-04-03T14:33:24;4.07;;;1.57;;
75429;SDS011;64127;51.488;5.462;2023-04-03T14:35:59;4.60;;;1.80;;
75429;SDS011;64127;51.488;5.462;2023-04-03T14:38:33;1.77;;;1.63;;
75429;SDS011;64127;51.488;5.462;2023-04-03T14:41:06;2.03;;;1.50;;
75429;SDS011;64127;51.488;5.462;2023-04-03T14:43:47;3.13;;;1.50;;
75429;SDS011;64127;51.488;5.462;2023-04-03T14:49:19;3.00;;;1.70;;
75429;SDS011;64127;51.488;5.462;2023-04-03T14:51:58;2.57;;;1.63;;
75429;SDS011;64127;51.488;5.462;2023-04-03T14:54:30;3.60;;;1.60;;
75429;SDS011;64127;51.488;5.462;2023-04-03T14:57:05;2.07;;;1.63;;
75429;SDS011;64127;51.488;5.462;2023-04-03T14:59:45;2.57;;;2.00;;
75429;SDS011;64127;51.488;5.462;2023-04-03T15:02:24;2.23;;;1.50;;
75429;SDS011;64127;51.488;5.462;2023-04-03T15:05:04;2.10;;;1.73;;
75429;SDS011;64127;51.488;5.462;2023-04-03T15:07:44;1.83;;;1.53;;
75429;SDS011;64127;51.488;5.462;2023-04-03T15:10:25;2.07;;;1.60;;
75429;SDS011;64127;51.488;5.462;2023-04-03T15:13:01;3.20;;;1.53;;
75429;SDS011;64127;51.488;5.462;2023-04-03T15:15:33;19.50;;;3.03;;
75429;SDS011;64127;51.488;5.462;2023-04-03T15:18:10;1.90;;;1.60;;
75429;SDS011;64127;51.488;5.462;2023-04-03T15:20:48;2.00;;;1.70;;
75429;SDS011;64127;51.488;5.462;2023-04-03T15:23:21;2.63;;;1.93;;
75429;SDS011;64127;51.488;5.462;2023-04-03T15:25:57;2.97;;;1.53;;
75429;SDS011;64127;51.488;5.462;2023-04-03T15:31:11;2.67;;;1.47;;
75429;SDS011;64127;51.488;5.462;2023-04-03T15:33:43;2.63;;;1.60;;
75429;SDS011;64127;51.488;5.462;2023-04-03T15:36:15;2.97;;;1.70;;
75429;SDS011;64127;51.488;5.462;2023-04-03T15:38:52;2.80;;;1.60;;
75429;SDS011;64127;51.488;5.462;2023-04-03T15:41:25;2.13;;;1.60;;
75429;SDS011;64127;51.488;5.462;2023-04-03T15:43:56;3.83;;;1.73;;
75429;SDS011;64127;51.488;5.462;2023-04-03T15:46:28;1.97;;;1.50;;
75429;SDS011;64127;51.488;5.462;2023-04-03T15:49:01;5.60;;;1.70;;
75429;SDS011;64127;51.488;5.462;2023-04-03T15:51:33;3.30;;;1.60;;
75429;SDS011;64127;51.488;5.462;2023-04-03T15:54:08;3.00;;;1.83;;
75429;SDS011;64127;51.488;5.462;2023-04-03T15:56:40;2.03;;;1.70;;
75429;SDS011;64127;51.488;5.462;2023-04-03T15:59:12;2.87;;;1.80;;
75429;SDS011;64127;51.488;5.462;2023-04-03T16:01:44;2.07;;;1.60;;
75429;SDS011;64127;51.488;5.462;2023-04-03T16:04:17;2.37;;;1.80;;
75429;SDS011;64127;51.488;5.462;2023-04-03T16:06:51;2.93;;;1.80;;
75429;SDS011;64127;51.488;5.462;2023-04-03T16:09:23;2.50;;;1.67;;
75429;SDS011;64127;51.488;5.462;2023-04-03T16:11:55;3.37;;;1.63;;
75429;SDS011;64127;51.488;5.462;2023-04-03T16:14:27;2.00;;;1.50;;
75429;SDS011;64127;51.488;5.462;2023-04-03T16:17:01;3.53;;;1.50;;
75429;SDS011;64127;51.488;5.462;2023-04-03T16:19:33;3.20;;;1.67;;
75429;SDS011;64127;51.488;5.462;2023-04-03T16:22:05;2.33;;;1.60;;
75429;SDS011;64127;51.488;5.462;2023-04-03T16:24:37;2.67;;;1.90;;
75429;SDS011;64127;51.488;5.462;2023-04-03T16:27:09;2.87;;;1.70;;
75429;SDS011;64127;51.488;5.462;2023-04-03T16:29:41;2.20;;;1.57;;
75429;SDS011;64127;51.488;5.462;2023-04-03T16:32:13;2.90;;;1.80;;
75429;SDS011;64127;51.488;5.462;2023-04-03T16:34:47;2.57;;;1.63;;
75429;SDS011;64127;51.488;5.462;2023-04-03T16:37:19;2.57;;;1.70;;
75429;SDS011;64127;51.488;5.462;2023-04-03T16:39:52;2.87;;;1.60;;
75429;SDS011;64127;51.488;5.462;2023-04-03T16:42:24;3.13;;;1.57;;
75429;SDS011;64127;51.488;5.462;2023-04-03T16:44:57;2.27;;;1.30;;
75429;SDS011;64127;51.488;5.462;2023-04-03T16:47:31;2.63;;;1.47;;
75429;SDS011;64127;51.488;5.462;2023-04-03T16:50:03;3.07;;;1.67;;
75429;SDS011;64127;51.488;5.462;2023-04-03T16:52:36;3.07;;;1.60;;
75429;SDS011;64127;51.488;5.462;2023-04-03T16:55:08;2.23;;;1.50;;
75429;SDS011;64127;51.488;5.462;2023-04-03T16:57:41;1.73;;;1.60;;
75429;SDS011;64127;51.488;5.462;2023-04-03T17:00:14;2.13;;;1.60;;
75429;SDS011;64127;51.488;5.462;2023-04-03T17:02:46;1.60;;;1.50;;
75429;SDS011;64127;51.488;5.462;2023-04-03T17:05:18;3.00;;;1.80;;
75429;SDS011;64127;51.488;5.462;2023-04-03T17:07:51;2.00;;;1.60;;
75429;SDS011;64127;51.488;5.462;2023-04-03T17:10:23;2.67;;;1.67;;
75429;SDS011;64127;51.488;5.462;2023-04-03T17:12:56;3.63;;;1.70;;
75429;SDS011;64127;51.488;5.462;2023-04-03T17:15:28;2.50;;;1.60;;
75429;SDS011;64127;51.488;5.462;2023-04-03T17:18:00;3.53;;;1.77;;
75429;SDS011;64127;51.488;5.462;2023-04-03T17:20:32;3.10;;;1.57;;
75429;SDS011;64127;51.488;5.462;2023-04-03T17:23:05;4.43;;;1.80;;
75429;SDS011;64127;51.488;5.462;2023-04-03T17:25:37;3.00;;;1.60;;